メインページ
METAR-TAF:

METAR-TAF

空港 :

バミューダ諸島, バミューダ諸島

バミューダ国際空港

緯度: 32-22N, 経度: 064-41W, 海抜: 6m

現時点の気象観測

当レポートは40分前の15:55(UTC)に作成
東/南東の風 23kt
気温 23°C
湿度 78%
気圧 1019 hPa
視程10km以上
高度2300ftの千切れ雲あり
高度3500ftの千切れ雲あり
高度30000ftの曇り

METAR: TXKF 221555Z 12023KT 9999 BKN023 BKN035 OVC300 23/19 Q1019 RMK BKN023 V SCT

時間: 12:35 (16:35 UTC)

予報

当レポートは5時間0分前の11:35(UTC)に作成
予報は22日の 12時(UTC)から 23日の 12時(UTC)まで有効
南東の風 20kt
視程10km以上
高度2500ftの雲はほとんどない
高度4000ftの雲は散在している
高度30000ftの千切れ雲あり
22日の 12時(UTC)から 22日の 21時(UTC)まで一時的に
南東の風 25kt
確率 40% :
22日の 18時(UTC)から 23日の 09時(UTC)まで一時的に
南東の風 30kt
視程: 6000m
高度1000ftの雲は散在している
高度1500ftの千切れ雲あり
高度16000ftの曇り
弱いにわか雨
23日の 06時(UTC)から 23日の 09時(UTC)まで徐々に
の風 18kt
23日の 09時(UTC)から 23日の 12時(UTC)まで徐々に
北/北東の風 15kt
視程10km以上
高度1000ftの雲は散在している
高度1500ftの千切れ雲あり

TAF: TXKF 221135Z 2212/2312 14020KT 9999 FEW025 SCT040 BKN300 TEMPO 2212/2221 14025KT PROB40 TEMPO 2218/2309 14030KT 6000 -SHRA SCT010 BKN015 OVC160 BECMG 2306/2309 09018KT BECMG 2309/2312 03015KT 9999 NSW SCT010 BKN015

4,000以上の空港の気象観測と天気予報(METAR報とTAF報)

利用可能な観測所は地図上に黄色い丸と赤い丸で示す。

丸の上にカーソルを重ねると観測所名を参照できる。

次にクリックすると気象観測と天気予報を参照できる。

マップの切り替え:黒色「×」印の緑ボタンをクリックして拡大、「-」印の緑ボタンをクリックして縮小、緑色の三角印をクリックして隣りの地図に切り替え


METAR-TAF: